Coden, Alabama
Current Conditions -  °F | °C
As of 1:53 PM on Wednesday 28 Jan 2015 (Local Time) from KPQL Reporting Station
Clear Clear  
Wind Chill: 67°   Ceiling: Unl
Heat Index: 67°   Visibility: 10mi
Dew Point: 25°   Wind: 6mph
Humidity: 21%   Direction: 20°NNE
Pressure: 30.23"   Gusts: NA
Location:  30.38°N, 88.24°W
Report Text: KPQL 281953Z 02005KT 10SM CLR 19/M04 A3023 RMK AO2 SLP236 T01941039
Loading
Personal Weather Stations






























Interactive Weather Map New forecast layout! Learn more

10-Day Weather Forecast

Advertisements
Track Severe Weather on mobile